sensor_id;sensor_type;location;lat;lon;timestamp;temperature;humidity
20483;DHT22;10400;53.198;6.592;2022-09-13T00:01:16;18.30;99.90
20483;DHT22;10400;53.198;6.592;2022-09-13T00:03:42;18.30;99.90
20483;DHT22;10400;53.198;6.592;2022-09-13T00:06:09;18.30;99.90
20483;DHT22;10400;53.198;6.592;2022-09-13T00:08:35;18.20;99.90
20483;DHT22;10400;53.198;6.592;2022-09-13T00:11:00;18.20;99.90
20483;DHT22;10400;53.198;6.592;2022-09-13T00:13:26;18.20;99.90
20483;DHT22;10400;53.198;6.592;2022-09-13T00:15:52;18.10;99.90
20483;DHT22;10400;53.198;6.592;2022-09-13T00:18:17;18.10;99.90
20483;DHT22;10400;53.198;6.592;2022-09-13T00:20:44;18.20;99.90
20483;DHT22;10400;53.198;6.592;2022-09-13T00:23:10;18.10;99.90
20483;DHT22;10400;53.198;6.592;2022-09-13T00:25:37;18.10;99.90
20483;DHT22;10400;53.198;6.592;2022-09-13T00:28:03;18.10;99.90
20483;DHT22;10400;53.198;6.592;2022-09-13T00:30:28;18.10;99.90
20483;DHT22;10400;53.198;6.592;2022-09-13T00:32:54;18.10;99.90
20483;DHT22;10400;53.198;6.592;2022-09-13T00:35:20;18.10;99.90
20483;DHT22;10400;53.198;6.592;2022-09-13T00:37:46;18.10;99.90
20483;DHT22;10400;53.198;6.592;2022-09-13T00:40:12;18.10;99.90
20483;DHT22;10400;53.198;6.592;2022-09-13T00:42:37;18.00;99.90
20483;DHT22;10400;53.198;6.592;2022-09-13T00:50:44;18.00;99.90
20483;DHT22;10400;53.198;6.592;2022-09-13T00:53:17;18.00;99.90
20483;DHT22;10400;53.198;6.592;2022-09-13T00:55:47;18.00;99.90
20483;DHT22;10400;53.198;6.592;2022-09-13T00:58:19;18.00;99.90
20483;DHT22;10400;53.198;6.592;2022-09-13T01:00:46;18.00;99.90
20483;DHT22;10400;53.198;6.592;2022-09-13T01:03:14;18.00;99.90
20483;DHT22;10400;53.198;6.592;2022-09-13T01:05:45;18.10;99.90
20483;DHT22;10400;53.198;6.592;2022-09-13T01:08:13;18.10;99.90
20483;DHT22;10400;53.198;6.592;2022-09-13T01:10:48;18.10;99.90
20483;DHT22;10400;53.198;6.592;2022-09-13T01:13:23;18.20;99.90
20483;DHT22;10400;53.198;6.592;2022-09-13T01:15:51;18.10;99.90
20483;DHT22;10400;53.198;6.592;2022-09-13T01:18:18;18.10;99.90
20483;DHT22;10400;53.198;6.592;2022-09-13T01:21:18;18.10;99.90
20483;DHT22;10400;53.198;6.592;2022-09-13T01:38:53;18.00;99.90
20483;DHT22;10400;53.198;6.592;2022-09-13T01:41:48;18.00;99.90
20483;DHT22;10400;53.198;6.592;2022-09-13T01:49:58;18.00;99.90
20483;DHT22;10400;53.198;6.592;2022-09-13T01:52:54;18.00;99.90
20483;DHT22;10400;53.198;6.592;2022-09-13T01:55:28;18.00;99.90
20483;DHT22;10400;53.198;6.592;2022-09-13T02:03:30;18.00;99.90
20483;DHT22;10400;53.198;6.592;2022-09-13T02:06:01;18.00;99.90
20483;DHT22;10400;53.198;6.592;2022-09-13T02:08:41;18.00;99.90
20483;DHT22;10400;53.198;6.592;2022-09-13T02:11:10;18.00;99.90
20483;DHT22;10400;53.198;6.592;2022-09-13T02:14:43;18.00;99.90
20483;DHT22;10400;53.198;6.592;2022-09-13T02:17:14;17.90;99.90
20483;DHT22;10400;53.198;6.592;2022-09-13T02:19:41;18.00;99.90
20483;DHT22;10400;53.198;6.592;2022-09-13T02:22:10;18.00;99.90
20483;DHT22;10400;53.198;6.592;2022-09-13T02:24:41;18.00;99.90
20483;DHT22;10400;53.198;6.592;2022-09-13T02:27:10;17.90;99.90
20483;DHT22;10400;53.198;6.592;2022-09-13T02:29:39;18.00;99.90
20483;DHT22;10400;53.198;6.592;2022-09-13T02:32:28;17.90;99.90
20483;DHT22;10400;53.198;6.592;2022-09-13T02:35:02;17.90;99.90
20483;DHT22;10400;53.198;6.592;2022-09-13T02:37:31;17.90;99.90
20483;DHT22;10400;53.198;6.592;2022-09-13T02:40:14;17.90;99.90
20483;DHT22;10400;53.198;6.592;2022-09-13T02:42:54;18.00;99.90
20483;DHT22;10400;53.198;6.592;2022-09-13T02:45:27;17.90;99.90
20483;DHT22;10400;53.198;6.592;2022-09-13T02:48:09;18.00;99.90
20483;DHT22;10400;53.198;6.592;2022-09-13T02:51:29;17.90;99.90
20483;DHT22;10400;53.198;6.592;2022-09-13T03:01:09;18.00;99.90
20483;DHT22;10400;53.198;6.592;2022-09-13T03:03:35;18.00;99.90
20483;DHT22;10400;53.198;6.592;2022-09-13T03:06:01;18.00;99.90
20483;DHT22;10400;53.198;6.592;2022-09-13T03:08:27;18.10;99.90
20483;DHT22;10400;53.198;6.592;2022-09-13T03:13:38;18.10;99.90
20483;DHT22;10400;53.198;6.592;2022-09-13T03:16:21;18.10;99.90
20483;DHT22;10400;53.198;6.592;2022-09-13T03:19:19;18.10;99.90
20483;DHT22;10400;53.198;6.592;2022-09-13T03:25:00;18.00;99.90
20483;DHT22;10400;53.198;6.592;2022-09-13T03:27:55;18.00;99.90
20483;DHT22;10400;53.198;6.592;2022-09-13T03:30:25;18.00;99.90
20483;DHT22;10400;53.198;6.592;2022-09-13T03:33:10;17.90;99.90
20483;DHT22;10400;53.198;6.592;2022-09-13T03:38:34;17.90;99.90
20483;DHT22;10400;53.198;6.592;2022-09-13T03:41:26;17.90;99.90
20483;DHT22;10400;53.198;6.592;2022-09-13T03:43:57;17.90;99.90
20483;DHT22;10400;53.198;6.592;2022-09-13T03:46:31;17.90;99.90
20483;DHT22;10400;53.198;6.592;2022-09-13T03:49:11;17.80;99.90
20483;DHT22;10400;53.198;6.592;2022-09-13T03:51:39;17.90;99.90
20483;DHT22;10400;53.198;6.592;2022-09-13T03:54:15;17.80;99.90
20483;DHT22;10400;53.198;6.592;2022-09-13T03:56:41;17.80;99.90
20483;DHT22;10400;53.198;6.592;2022-09-13T03:59:07;17.90;99.90
20483;DHT22;10400;53.198;6.592;2022-09-13T04:01:32;17.80;99.90
20483;DHT22;10400;53.198;6.592;2022-09-13T04:03:58;17.80;99.90
20483;DHT22;10400;53.198;6.592;2022-09-13T04:06:24;17.80;99.90
20483;DHT22;10400;53.198;6.592;2022-09-13T04:08:49;17.80;99.90
20483;DHT22;10400;53.198;6.592;2022-09-13T04:11:15;17.80;99.90
20483;DHT22;10400;53.198;6.592;2022-09-13T04:13:41;17.80;99.90
20483;DHT22;10400;53.198;6.592;2022-09-13T04:16:07;17.80;99.90
20483;DHT22;10400;53.198;6.592;2022-09-13T04:18:33;17.80;99.90
20483;DHT22;10400;53.198;6.592;2022-09-13T04:21:00;17.80;99.90
20483;DHT22;10400;53.198;6.592;2022-09-13T04:23:27;17.80;99.90
20483;DHT22;10400;53.198;6.592;2022-09-13T04:25:53;17.80;99.90
20483;DHT22;10400;53.198;6.592;2022-09-13T04:28:20;17.80;99.90
20483;DHT22;10400;53.198;6.592;2022-09-13T04:30:47;17.80;99.90
20483;DHT22;10400;53.198;6.592;2022-09-13T04:33:14;17.70;99.90
20483;DHT22;10400;53.198;6.592;2022-09-13T04:35:42;17.70;99.90
20483;DHT22;10400;53.198;6.592;2022-09-13T04:38:07;17.70;99.90
20483;DHT22;10400;53.198;6.592;2022-09-13T04:40:34;17.70;99.90
20483;DHT22;10400;53.198;6.592;2022-09-13T04:43:00;17.80;99.90
20483;DHT22;10400;53.198;6.592;2022-09-13T04:45:27;17.80;99.90
20483;DHT22;10400;53.198;6.592;2022-09-13T04:47:53;17.80;99.90
20483;DHT22;10400;53.198;6.592;2022-09-13T04:50:21;17.80;99.90
20483;DHT22;10400;53.198;6.592;2022-09-13T04:52:47;17.70;99.90
20483;DHT22;10400;53.198;6.592;2022-09-13T04:55:13;17.80;99.90
20483;DHT22;10400;53.198;6.592;2022-09-13T04:57:39;17.80;99.90
20483;DHT22;10400;53.198;6.592;2022-09-13T05:00:06;17.80;99.90
20483;DHT22;10400;53.198;6.592;2022-09-13T05:02:32;17.80;99.90
20483;DHT22;10400;53.198;6.592;2022-09-13T05:04:58;17.70;99.90
20483;DHT22;10400;53.198;6.592;2022-09-13T05:07:24;17.70;99.90
20483;DHT22;10400;53.198;6.592;2022-09-13T05:09:49;17.80;99.90
20483;DHT22;10400;53.198;6.592;2022-09-13T05:12:15;17.80;99.90
20483;DHT22;10400;53.198;6.592;2022-09-13T05:14:41;17.70;99.90
20483;DHT22;10400;53.198;6.592;2022-09-13T05:17:07;17.70;99.90
20483;DHT22;10400;53.198;6.592;2022-09-13T05:19:32;17.70;99.90
20483;DHT22;10400;53.198;6.592;2022-09-13T05:21:59;17.70;99.90
20483;DHT22;10400;53.198;6.592;2022-09-13T05:24:25;17.70;99.90
20483;DHT22;10400;53.198;6.592;2022-09-13T05:26:50;17.70;99.90
20483;DHT22;10400;53.198;6.592;2022-09-13T05:29:16;17.70;99.90
20483;DHT22;10400;53.198;6.592;2022-09-13T05:31:42;17.70;99.90
20483;DHT22;10400;53.198;6.592;2022-09-13T05:34:13;17.70;99.90
20483;DHT22;10400;53.198;6.592;2022-09-13T05:36:39;17.70;99.90
20483;DHT22;10400;53.198;6.592;2022-09-13T05:39:06;17.60;99.90
20483;DHT22;10400;53.198;6.592;2022-09-13T05:41:32;17.60;99.90
20483;DHT22;10400;53.198;6.592;2022-09-13T05:43:58;17.60;99.90
20483;DHT22;10400;53.198;6.592;2022-09-13T05:46:24;17.60;99.90
20483;DHT22;10400;53.198;6.592;2022-09-13T05:48:49;17.60;99.90
20483;DHT22;10400;53.198;6.592;2022-09-13T05:51:18;17.50;99.90
20483;DHT22;10400;53.198;6.592;2022-09-13T05:53:46;17.40;99.90
20483;DHT22;10400;53.198;6.592;2022-09-13T05:56:17;17.40;99.90
20483;DHT22;10400;53.198;6.592;2022-09-13T05:58:44;17.50;99.90
20483;DHT22;10400;53.198;6.592;2022-09-13T06:01:11;17.50;99.90
20483;DHT22;10400;53.198;6.592;2022-09-13T06:03:38;17.50;99.90
20483;DHT22;10400;53.198;6.592;2022-09-13T06:06:04;17.60;99.90
20483;DHT22;10400;53.198;6.592;2022-09-13T06:08:32;17.70;99.90
20483;DHT22;10400;53.198;6.592;2022-09-13T06:11:00;17.70;99.90
20483;DHT22;10400;53.198;6.592;2022-09-13T06:13:27;17.70;99.90
20483;DHT22;10400;53.198;6.592;2022-09-13T06:15:56;17.80;99.90
20483;DHT22;10400;53.198;6.592;2022-09-13T06:18:23;17.70;99.90
20483;DHT22;10400;53.198;6.592;2022-09-13T06:20:49;17.80;99.90
20483;DHT22;10400;53.198;6.592;2022-09-13T06:23:15;17.80;99.90
20483;DHT22;10400;53.198;6.592;2022-09-13T06:25:41;17.90;99.90
20483;DHT22;10400;53.198;6.592;2022-09-13T06:28:07;17.90;99.90
20483;DHT22;10400;53.198;6.592;2022-09-13T06:30:33;18.00;99.90
20483;DHT22;10400;53.198;6.592;2022-09-13T06:32:59;18.00;99.90
20483;DHT22;10400;53.198;6.592;2022-09-13T06:35:25;18.00;99.90
20483;DHT22;10400;53.198;6.592;2022-09-13T06:37:54;18.00;99.90
20483;DHT22;10400;53.198;6.592;2022-09-13T06:40:20;18.00;99.90
20483;DHT22;10400;53.198;6.592;2022-09-13T06:42:47;18.00;99.90
20483;DHT22;10400;53.198;6.592;2022-09-13T06:45:12;18.00;99.90
20483;DHT22;10400;53.198;6.592;2022-09-13T06:47:38;18.20;99.90
20483;DHT22;10400;53.198;6.592;2022-09-13T06:50:04;18.10;99.90
20483;DHT22;10400;53.198;6.592;2022-09-13T06:52:32;18.10;99.90
20483;DHT22;10400;53.198;6.592;2022-09-13T06:54:57;18.20;99.90
20483;DHT22;10400;53.198;6.592;2022-09-13T06:57:23;18.20;99.90
20483;DHT22;10400;53.198;6.592;2022-09-13T06:59:49;18.30;99.90
20483;DHT22;10400;53.198;6.592;2022-09-13T07:02:14;18.20;99.90
20483;DHT22;10400;53.198;6.592;2022-09-13T07:04:40;18.20;99.90
20483;DHT22;10400;53.198;6.592;2022-09-13T07:07:06;18.30;99.90
20483;DHT22;10400;53.198;6.592;2022-09-13T07:09:31;18.20;99.90
20483;DHT22;10400;53.198;6.592;2022-09-13T07:11:59;18.30;99.90
20483;DHT22;10400;53.198;6.592;2022-09-13T07:14:26;18.40;99.90
20483;DHT22;10400;53.198;6.592;2022-09-13T07:16:52;18.50;99.90
20483;DHT22;10400;53.198;6.592;2022-09-13T07:19:21;18.60;99.90
20483;DHT22;10400;53.198;6.592;2022-09-13T07:21:51;18.70;99.90
20483;DHT22;10400;53.198;6.592;2022-09-13T07:24:19;18.70;99.90
20483;DHT22;10400;53.198;6.592;2022-09-13T07:26:45;18.70;99.90
20483;DHT22;10400;53.198;6.592;2022-09-13T07:29:14;18.70;99.90
20483;DHT22;10400;53.198;6.592;2022-09-13T07:31:42;18.70;99.90
20483;DHT22;10400;53.198;6.592;2022-09-13T07:34:16;18.70;99.90
20483;DHT22;10400;53.198;6.592;2022-09-13T07:36:43;18.60;99.90
20483;DHT22;10400;53.198;6.592;2022-09-13T07:39:11;18.60;99.90
20483;DHT22;10400;53.198;6.592;2022-09-13T07:41:37;18.50;99.90
20483;DHT22;10400;53.198;6.592;2022-09-13T07:44:03;18.60;99.90
20483;DHT22;10400;53.198;6.592;2022-09-13T07:46:34;18.60;99.90
20483;DHT22;10400;53.198;6.592;2022-09-13T07:49:05;18.50;99.90
20483;DHT22;10400;53.198;6.592;2022-09-13T07:51:32;18.60;99.90
20483;DHT22;10400;53.198;6.592;2022-09-13T07:54:00;18.70;99.90
20483;DHT22;10400;53.198;6.592;2022-09-13T07:56:34;18.80;99.90
20483;DHT22;10400;53.198;6.592;2022-09-13T07:59:02;18.80;99.90
20483;DHT22;10400;53.198;6.592;2022-09-13T08:01:33;18.80;99.90
20483;DHT22;10400;53.198;6.592;2022-09-13T08:04:01;18.90;99.90
20483;DHT22;10400;53.198;6.592;2022-09-13T08:06:29;19.00;99.90
20483;DHT22;10400;53.198;6.592;2022-09-13T08:08:56;19.10;99.90
20483;DHT22;10400;53.198;6.592;2022-09-13T08:11:25;19.20;99.90
20483;DHT22;10400;53.198;6.592;2022-09-13T08:13:52;19.30;99.90
20483;DHT22;10400;53.198;6.592;2022-09-13T08:16:19;19.30;99.90
20483;DHT22;10400;53.198;6.592;2022-09-13T08:18:46;19.30;99.90
20483;DHT22;10400;53.198;6.592;2022-09-13T08:21:13;19.40;99.90
20483;DHT22;10400;53.198;6.592;2022-09-13T08:23:39;19.40;99.90
20483;DHT22;10400;53.198;6.592;2022-09-13T08:26:05;19.40;99.90
20483;DHT22;10400;53.198;6.592;2022-09-13T08:28:34;19.40;99.90
20483;DHT22;10400;53.198;6.592;2022-09-13T08:31:14;19.40;99.90
20483;DHT22;10400;53.198;6.592;2022-09-13T08:33:46;19.40;99.90
20483;DHT22;10400;53.198;6.592;2022-09-13T08:36:13;19.50;99.90
20483;DHT22;10400;53.198;6.592;2022-09-13T08:38:38;19.50;99.90
20483;DHT22;10400;53.198;6.592;2022-09-13T08:46:38;19.90;99.90
20483;DHT22;10400;53.198;6.592;2022-09-13T08:49:10;19.60;99.90
20483;DHT22;10400;53.198;6.592;2022-09-13T08:51:48;19.40;99.90
20483;DHT22;10400;53.198;6.592;2022-09-13T08:54:17;19.30;99.90
20483;DHT22;10400;53.198;6.592;2022-09-13T09:05:25;19.80;99.90
20483;DHT22;10400;53.198;6.592;2022-09-13T09:08:27;19.80;99.90
20483;DHT22;10400;53.198;6.592;2022-09-13T09:10:54;20.00;99.90
20483;DHT22;10400;53.198;6.592;2022-09-13T09:16:32;20.10;99.90
20483;DHT22;10400;53.198;6.592;2022-09-13T09:19:11;20.20;99.90
20483;DHT22;10400;53.198;6.592;2022-09-13T09:21:40;20.40;99.90
20483;DHT22;10400;53.198;6.592;2022-09-13T09:24:08;20.20;99.90
20483;DHT22;10400;53.198;6.592;2022-09-13T09:26:36;20.40;99.90
20483;DHT22;10400;53.198;6.592;2022-09-13T09:39:31;20.50;99.90
20483;DHT22;10400;53.198;6.592;2022-09-13T09:41:58;20.30;99.90
20483;DHT22;10400;53.198;6.592;2022-09-13T09:44:27;20.50;99.90
20483;DHT22;10400;53.198;6.592;2022-09-13T09:47:09;20.60;99.90
20483;DHT22;10400;53.198;6.592;2022-09-13T09:49:49;20.60;99.90
20483;DHT22;10400;53.198;6.592;2022-09-13T09:58:00;20.50;99.90
20483;DHT22;10400;53.198;6.592;2022-09-13T10:00:32;20.20;99.90
20483;DHT22;10400;53.198;6.592;2022-09-13T10:03:05;20.20;99.90
20483;DHT22;10400;53.198;6.592;2022-09-13T10:05:33;20.20;99.90
20483;DHT22;10400;53.198;6.592;2022-09-13T10:08:07;20.20;99.90
20483;DHT22;10400;53.198;6.592;2022-09-13T10:10:43;20.60;99.90
20483;DHT22;10400;53.198;6.592;2022-09-13T10:13:20;20.70;99.90
20483;DHT22;10400;53.198;6.592;2022-09-13T10:15:55;20.40;99.90
20483;DHT22;10400;53.198;6.592;2022-09-13T10:18:23;20.30;99.90
20483;DHT22;10400;53.198;6.592;2022-09-13T10:21:19;20.10;99.90
20483;DHT22;10400;53.198;6.592;2022-09-13T10:23:47;20.10;99.90
20483;DHT22;10400;53.198;6.592;2022-09-13T10:26:20;20.20;99.90
20483;DHT22;10400;53.198;6.592;2022-09-13T10:29:06;20.40;99.90
20483;DHT22;10400;53.198;6.592;2022-09-13T10:31:35;20.50;99.90
20483;DHT22;10400;53.198;6.592;2022-09-13T10:34:11;20.80;99.90
20483;DHT22;10400;53.198;6.592;2022-09-13T10:36:47;21.10;99.90
20483;DHT22;10400;53.198;6.592;2022-09-13T10:39:18;21.10;99.90
20483;DHT22;10400;53.198;6.592;2022-09-13T10:47:24;20.40;99.90
20483;DHT22;10400;53.198;6.592;2022-09-13T10:49:53;20.60;99.90
20483;DHT22;10400;53.198;6.592;2022-09-13T11:00:17;21.30;99.90
20483;DHT22;10400;53.198;6.592;2022-09-13T11:14:32;20.80;99.90
20483;DHT22;10400;53.198;6.592;2022-09-13T11:20:10;21.10;99.90
20483;DHT22;10400;53.198;6.592;2022-09-13T11:34:43;22.00;99.90
20483;DHT22;10400;53.198;6.592;2022-09-13T11:37:39;21.90;99.90
20483;DHT22;10400;53.198;6.592;2022-09-13T11:56:48;21.70;99.90
20483;DHT22;10400;53.198;6.592;2022-09-13T11:59:37;21.60;99.90
20483;DHT22;10400;53.198;6.592;2022-09-13T12:04:53;21.60;99.90
20483;DHT22;10400;53.198;6.592;2022-09-13T12:13:26;21.40;99.90
20483;DHT22;10400;53.198;6.592;2022-09-13T12:16:07;21.60;99.90
20483;DHT22;10400;53.198;6.592;2022-09-13T12:18:39;21.60;99.90
20483;DHT22;10400;53.198;6.592;2022-09-13T12:21:36;21.30;99.90
20483;DHT22;10400;53.198;6.592;2022-09-13T12:24:13;21.30;99.90
20483;DHT22;10400;53.198;6.592;2022-09-13T12:26:47;21.50;99.90
20483;DHT22;10400;53.198;6.592;2022-09-13T12:32:08;21.50;99.90
20483;DHT22;10400;53.198;6.592;2022-09-13T12:42:59;21.50;99.90
20483;DHT22;10400;53.198;6.592;2022-09-13T12:59:38;21.60;99.90
20483;DHT22;10400;53.198;6.592;2022-09-13T13:05:00;21.40;99.90
20483;DHT22;10400;53.198;6.592;2022-09-13T13:07:27;21.30;99.90
20483;DHT22;10400;53.198;6.592;2022-09-13T13:09:55;21.20;99.90
20483;DHT22;10400;53.198;6.592;2022-09-13T13:12:33;21.40;99.90
20483;DHT22;10400;53.198;6.592;2022-09-13T13:17:53;21.40;99.90
20483;DHT22;10400;53.198;6.592;2022-09-13T13:23:35;21.70;99.90
20483;DHT22;10400;53.198;6.592;2022-09-13T13:44:00;21.40;99.90
20483;DHT22;10400;53.198;6.592;2022-09-13T13:46:31;21.60;99.90
20483;DHT22;10400;53.198;6.592;2022-09-13T13:54:58;21.50;99.90
20483;DHT22;10400;53.198;6.592;2022-09-13T13:57:51;21.60;99.90
20483;DHT22;10400;53.198;6.592;2022-09-13T14:08:22;22.00;99.90
20483;DHT22;10400;53.198;6.592;2022-09-13T14:16:18;21.40;99.90
20483;DHT22;10400;53.198;6.592;2022-09-13T14:21:28;21.60;99.90
20483;DHT22;10400;53.198;6.592;2022-09-13T14:24:27;21.60;99.90
20483;DHT22;10400;53.198;6.592;2022-09-13T14:26:57;21.40;99.90
20483;DHT22;10400;53.198;6.592;2022-09-13T14:29:23;21.50;99.90
20483;DHT22;10400;53.198;6.592;2022-09-13T14:32:00;21.70;99.90
20483;DHT22;10400;53.198;6.592;2022-09-13T14:34:29;21.50;99.90
20483;DHT22;10400;53.198;6.592;2022-09-13T14:36:57;21.40;99.90
20483;DHT22;10400;53.198;6.592;2022-09-13T14:39:25;21.50;99.90
20483;DHT22;10400;53.198;6.592;2022-09-13T14:44:25;21.10;99.90
20483;DHT22;10400;53.198;6.592;2022-09-13T14:47:55;21.30;99.90
20483;DHT22;10400;53.198;6.592;2022-09-13T14:49:53;21.30;99.90
20483;DHT22;10400;53.198;6.592;2022-09-13T14:52:31;21.20;99.90
20483;DHT22;10400;53.198;6.592;2022-09-13T14:55:02;21.20;99.90
20483;DHT22;10400;53.198;6.592;2022-09-13T14:57:36;21.30;99.90
20483;DHT22;10400;53.198;6.592;2022-09-13T15:00:15;21.20;99.90
20483;DHT22;10400;53.198;6.592;2022-09-13T15:02:49;21.00;99.90
20483;DHT22;10400;53.198;6.592;2022-09-13T15:05:18;20.70;99.90
20483;DHT22;10400;53.198;6.592;2022-09-13T15:07:44;20.70;99.90
20483;DHT22;10400;53.198;6.592;2022-09-13T15:15:37;20.40;99.90
20483;DHT22;10400;53.198;6.592;2022-09-13T15:18:24;20.50;99.90
20483;DHT22;10400;53.198;6.592;2022-09-13T15:23:30;20.40;99.90
20483;DHT22;10400;53.198;6.592;2022-09-13T15:26:06;20.60;99.90
20483;DHT22;10400;53.198;6.592;2022-09-13T15:28:44;20.70;99.90
20483;DHT22;10400;53.198;6.592;2022-09-13T15:31:20;20.70;99.90
20483;DHT22;10400;53.198;6.592;2022-09-13T15:33:46;20.50;99.90
20483;DHT22;10400;53.198;6.592;2022-09-13T15:41:29;20.30;99.90
20483;DHT22;10400;53.198;6.592;2022-09-13T15:43:56;20.20;99.90
20483;DHT22;10400;53.198;6.592;2022-09-13T15:46:22;19.90;99.90
20483;DHT22;10400;53.198;6.592;2022-09-13T15:48:56;19.80;99.90
20483;DHT22;10400;53.198;6.592;2022-09-13T15:51:22;19.90;99.90
20483;DHT22;10400;53.198;6.592;2022-09-13T15:53:48;19.90;99.90
20483;DHT22;10400;53.198;6.592;2022-09-13T15:56:25;20.00;99.90
20483;DHT22;10400;53.198;6.592;2022-09-13T15:58:52;20.20;99.90
20483;DHT22;10400;53.198;6.592;2022-09-13T16:01:18;20.20;99.90
20483;DHT22;10400;53.198;6.592;2022-09-13T16:03:43;20.40;99.90
20483;DHT22;10400;53.198;6.592;2022-09-13T16:06:09;20.30;99.90
20483;DHT22;10400;53.198;6.592;2022-09-13T16:08:36;20.20;99.90
20483;DHT22;10400;53.198;6.592;2022-09-13T16:11:02;20.30;99.90
20483;DHT22;10400;53.198;6.592;2022-09-13T16:13:28;20.30;99.90
20483;DHT22;10400;53.198;6.592;2022-09-13T16:15:53;20.40;99.90
20483;DHT22;10400;53.198;6.592;2022-09-13T16:18:21;20.50;99.90
20483;DHT22;10400;53.198;6.592;2022-09-13T16:20:48;20.40;99.90
20483;DHT22;10400;53.198;6.592;2022-09-13T16:23:13;20.20;99.90
20483;DHT22;10400;53.198;6.592;2022-09-13T16:25:39;20.20;99.90
20483;DHT22;10400;53.198;6.592;2022-09-13T16:28:06;20.30;99.90
20483;DHT22;10400;53.198;6.592;2022-09-13T16:30:32;20.30;99.90
20483;DHT22;10400;53.198;6.592;2022-09-13T16:32:58;20.30;99.90
20483;DHT22;10400;53.198;6.592;2022-09-13T16:35:29;20.30;99.90
20483;DHT22;10400;53.198;6.592;2022-09-13T16:37:55;20.10;99.90
20483;DHT22;10400;53.198;6.592;2022-09-13T16:40:21;19.90;99.90
20483;DHT22;10400;53.198;6.592;2022-09-13T16:42:47;19.90;99.90
20483;DHT22;10400;53.198;6.592;2022-09-13T16:45:12;20.00;99.90
20483;DHT22;10400;53.198;6.592;2022-09-13T16:47:38;19.90;99.90
20483;DHT22;10400;53.198;6.592;2022-09-13T16:50:06;20.00;99.90
20483;DHT22;10400;53.198;6.592;2022-09-13T16:52:32;19.70;99.90
20483;DHT22;10400;53.198;6.592;2022-09-13T16:55:00;19.40;99.90
20483;DHT22;10400;53.198;6.592;2022-09-13T16:57:25;19.40;99.90
20483;DHT22;10400;53.198;6.592;2022-09-13T16:59:52;19.30;99.90
20483;DHT22;10400;53.198;6.592;2022-09-13T17:02:19;19.10;99.90
20483;DHT22;10400;53.198;6.592;2022-09-13T17:04:45;18.90;99.90
20483;DHT22;10400;53.198;6.592;2022-09-13T17:07:12;18.90;99.90
20483;DHT22;10400;53.198;6.592;2022-09-13T17:09:38;19.00;99.90
20483;DHT22;10400;53.198;6.592;2022-09-13T17:12:06;19.00;99.90
20483;DHT22;10400;53.198;6.592;2022-09-13T17:14:32;18.90;99.90
20483;DHT22;10400;53.198;6.592;2022-09-13T17:16:58;19.00;99.90
20483;DHT22;10400;53.198;6.592;2022-09-13T17:19:30;18.90;99.90
20483;DHT22;10400;53.198;6.592;2022-09-13T17:21:58;18.90;99.90
20483;DHT22;10400;53.198;6.592;2022-09-13T17:24:26;18.80;99.90
20483;DHT22;10400;53.198;6.592;2022-09-13T17:26:53;18.70;99.90
20483;DHT22;10400;53.198;6.592;2022-09-13T17:29:19;18.70;99.90
20483;DHT22;10400;53.198;6.592;2022-09-13T17:31:45;18.70;99.90
20483;DHT22;10400;53.198;6.592;2022-09-13T17:34:12;18.70;99.90
20483;DHT22;10400;53.198;6.592;2022-09-13T17:36:39;18.70;99.90
20483;DHT22;10400;53.198;6.592;2022-09-13T17:39:05;18.60;99.90
20483;DHT22;10400;53.198;6.592;2022-09-13T17:41:31;18.70;99.90
20483;DHT22;10400;53.198;6.592;2022-09-13T17:43:56;18.60;99.90
20483;DHT22;10400;53.198;6.592;2022-09-13T17:46:25;18.50;99.90
20483;DHT22;10400;53.198;6.592;2022-09-13T17:48:53;18.50;99.90
20483;DHT22;10400;53.198;6.592;2022-09-13T17:51:21;18.60;99.90
20483;DHT22;10400;53.198;6.592;2022-09-13T17:53:50;18.60;99.90
20483;DHT22;10400;53.198;6.592;2022-09-13T17:56:18;18.60;99.90
20483;DHT22;10400;53.198;6.592;2022-09-13T17:58:44;18.50;99.90
20483;DHT22;10400;53.198;6.592;2022-09-13T18:01:10;18.50;99.90
20483;DHT22;10400;53.198;6.592;2022-09-13T18:03:36;18.50;99.90
20483;DHT22;10400;53.198;6.592;2022-09-13T18:06:04;18.50;99.90
20483;DHT22;10400;53.198;6.592;2022-09-13T18:08:32;18.50;99.90
20483;DHT22;10400;53.198;6.592;2022-09-13T18:11:20;18.40;99.90
20483;DHT22;10400;53.198;6.592;2022-09-13T18:13:46;18.40;99.90
20483;DHT22;10400;53.198;6.592;2022-09-13T18:16:23;18.40;99.90
20483;DHT22;10400;53.198;6.592;2022-09-13T18:18:52;18.40;99.90
20483;DHT22;10400;53.198;6.592;2022-09-13T18:21:20;18.30;99.90
20483;DHT22;10400;53.198;6.592;2022-09-13T18:23:47;18.30;99.90
20483;DHT22;10400;53.198;6.592;2022-09-13T18:26:16;18.30;99.90
20483;DHT22;10400;53.198;6.592;2022-09-13T18:28:42;18.30;99.90
20483;DHT22;10400;53.198;6.592;2022-09-13T18:31:14;18.10;99.90
20483;DHT22;10400;53.198;6.592;2022-09-13T18:34:21;18.10;99.90
20483;DHT22;10400;53.198;6.592;2022-09-13T18:36:46;18.10;99.90
20483;DHT22;10400;53.198;6.592;2022-09-13T18:39:17;18.20;99.90
20483;DHT22;10400;53.198;6.592;2022-09-13T18:41:44;18.10;99.90
20483;DHT22;10400;53.198;6.592;2022-09-13T18:44:12;18.20;99.90
20483;DHT22;10400;53.198;6.592;2022-09-13T18:46:39;18.20;99.90
20483;DHT22;10400;53.198;6.592;2022-09-13T18:49:06;18.10;99.90
20483;DHT22;10400;53.198;6.592;2022-09-13T18:51:40;18.10;99.90
20483;DHT22;10400;53.198;6.592;2022-09-13T18:54:07;18.10;99.90
20483;DHT22;10400;53.198;6.592;2022-09-13T18:56:34;18.00;99.90
20483;DHT22;10400;53.198;6.592;2022-09-13T18:59:03;18.00;99.90
20483;DHT22;10400;53.198;6.592;2022-09-13T19:01:34;18.00;99.90
20483;DHT22;10400;53.198;6.592;2022-09-13T19:04:20;17.90;99.90
20483;DHT22;10400;53.198;6.592;2022-09-13T19:06:51;17.80;99.90
20483;DHT22;10400;53.198;6.592;2022-09-13T19:09:18;17.80;99.90
20483;DHT22;10400;53.198;6.592;2022-09-13T19:11:46;17.80;99.90
20483;DHT22;10400;53.198;6.592;2022-09-13T19:14:18;17.80;99.90
20483;DHT22;10400;53.198;6.592;2022-09-13T19:16:44;17.70;99.90
20483;DHT22;10400;53.198;6.592;2022-09-13T19:19:13;17.70;99.90
20483;DHT22;10400;53.198;6.592;2022-09-13T19:21:40;17.70;99.90
20483;DHT22;10400;53.198;6.592;2022-09-13T19:24:06;17.70;99.90
20483;DHT22;10400;53.198;6.592;2022-09-13T19:26:34;17.60;99.90
20483;DHT22;10400;53.198;6.592;2022-09-13T19:29:02;17.60;99.90
20483;DHT22;10400;53.198;6.592;2022-09-13T19:31:30;17.60;99.90
20483;DHT22;10400;53.198;6.592;2022-09-13T19:33:56;17.50;99.90
20483;DHT22;10400;53.198;6.592;2022-09-13T19:36:24;17.60;99.90
20483;DHT22;10400;53.198;6.592;2022-09-13T19:38:52;17.50;99.90
20483;DHT22;10400;53.198;6.592;2022-09-13T19:41:19;17.50;99.90
20483;DHT22;10400;53.198;6.592;2022-09-13T19:43:46;17.50;99.90
20483;DHT22;10400;53.198;6.592;2022-09-13T19:46:22;17.40;99.90